createdAt,value
2023-03-11T00:03:02.708Z,6.46
2023-03-11T00:06:09.649Z,6.48
2023-03-11T00:09:16.544Z,6.55
2023-03-11T00:12:25.035Z,6.46
2023-03-11T00:15:33.771Z,6.44
2023-03-11T00:18:40.619Z,6.43
2023-03-11T00:21:47.441Z,6.31
2023-03-11T00:24:53.483Z,6.33
2023-03-11T00:28:03.832Z,6.32
2023-03-11T00:31:09.754Z,6.24
2023-03-11T00:34:16.657Z,6.22
2023-03-11T00:37:22.664Z,6.24
2023-03-11T00:40:38.588Z,6.02
2023-03-11T00:43:47.757Z,5.93
2023-03-11T00:46:54.520Z,5.96
2023-03-11T00:50:00.531Z,5.95
2023-03-11T00:53:10.589Z,5.93
2023-03-11T00:56:18.855Z,5.98
2023-03-11T00:59:28.541Z,5.87
2023-03-11T01:02:34.491Z,5.90
2023-03-11T01:05:41.547Z,5.90
2023-03-11T01:08:47.455Z,5.84
2023-03-11T01:11:54.647Z,5.78
2023-03-11T01:15:04.123Z,5.85
2023-03-11T01:18:10.979Z,5.85
2023-03-11T01:21:17.201Z,5.80
2023-03-11T01:24:24.092Z,5.83
2023-03-11T01:27:31.210Z,5.79
2023-03-11T01:30:44.374Z,5.87
2023-03-11T01:33:50.606Z,5.88
2023-03-11T01:36:57.372Z,5.93
2023-03-11T01:40:08.126Z,5.77
2023-03-11T01:43:50.517Z,5.60
2023-03-11T01:47:39.393Z,5.63
2023-03-11T01:50:53.735Z,5.44
2023-03-11T01:54:06.687Z,5.33
2023-03-11T01:57:17.867Z,5.38
2023-03-11T02:00:24.858Z,5.39
2023-03-11T02:03:39.321Z,5.32
2023-03-11T02:06:45.686Z,5.09
2023-03-11T02:09:53.111Z,5.07
2023-03-11T02:13:00.477Z,5.08
2023-03-11T02:16:10.950Z,5.07
2023-03-11T02:19:38.125Z,5.09
2023-03-11T02:22:47.531Z,5.00
2023-03-11T02:26:08.973Z,4.90
2023-03-11T02:29:19.895Z,4.79
2023-03-11T02:32:27.148Z,4.69
2023-03-11T02:35:37.422Z,4.67
2023-03-11T02:38:46.654Z,4.59
2023-03-11T02:41:52.891Z,4.63
2023-03-11T02:45:16.988Z,4.57
2023-03-11T02:48:32.695Z,4.41
2023-03-11T02:51:40.633Z,4.44
2023-03-11T02:54:46.595Z,4.45
2023-03-11T02:57:53.415Z,4.49
2023-03-11T03:01:02.167Z,4.66
2023-03-11T03:04:09.872Z,4.53
2023-03-11T03:07:19.341Z,4.56
2023-03-11T03:10:26.319Z,4.59
2023-03-11T03:13:33.717Z,4.53
2023-03-11T03:16:43.748Z,4.47
2023-03-11T03:19:50.426Z,4.37
2023-03-11T03:22:58.324Z,4.27
2023-03-11T03:26:09.520Z,4.07
2023-03-11T03:29:18.169Z,3.99
2023-03-11T03:32:27.834Z,3.74
2023-03-11T03:35:36.545Z,3.79
2023-03-11T03:38:59.187Z,3.64
2023-03-11T03:42:11.115Z,3.44
2023-03-11T03:45:20.364Z,3.32
2023-03-11T03:48:33.283Z,3.14
2023-03-11T03:51:41.615Z,2.86
2023-03-11T03:55:09.561Z,2.68
2023-03-11T03:58:16.487Z,2.52
2023-03-11T04:01:24.666Z,2.49
2023-03-11T04:04:34.224Z,2.38
2023-03-11T04:07:41.190Z,2.19
2023-03-11T04:10:48.086Z,2.14
2023-03-11T04:13:55.369Z,1.94
2023-03-11T04:17:01.565Z,1.90
2023-03-11T04:20:14.564Z,1.89
2023-03-11T04:23:23.880Z,1.84
2023-03-11T04:26:31.776Z,1.81
2023-03-11T04:29:37.968Z,1.73
2023-03-11T04:32:45.293Z,1.67
2023-03-11T04:35:54.657Z,1.56
2023-03-11T04:39:01.576Z,1.58
2023-03-11T04:42:14.221Z,1.55
2023-03-11T04:45:27.622Z,1.48
2023-03-11T04:48:37.503Z,1.27
2023-03-11T04:51:47.306Z,1.05
2023-03-11T04:54:56.390Z,0.99
2023-03-11T04:58:03.463Z,0.90
2023-03-11T05:01:23.579Z,0.84
2023-03-11T05:04:30.598Z,0.72
2023-03-11T05:07:39.999Z,0.61
2023-03-11T05:10:47.716Z,0.58
2023-03-11T05:13:59.885Z,0.51
2023-03-11T05:17:12.438Z,0.50
2023-03-11T05:20:21.102Z,0.48
2023-03-11T05:23:38.021Z,0.48
2023-03-11T05:26:46.313Z,0.50
2023-03-11T05:29:59.798Z,0.42
2023-03-11T05:33:08.896Z,0.44
2023-03-11T05:36:16.260Z,0.43
2023-03-11T05:39:27.200Z,0.24
2023-03-11T05:42:34.177Z,0.11
2023-03-11T05:45:41.361Z,0.15
2023-03-11T05:48:48.265Z,0.17
2023-03-11T05:51:58.497Z,0.03
2023-03-11T05:55:12.539Z,0.08
2023-03-11T05:58:27.866Z,-0.02
2023-03-11T06:01:37.297Z,-0.14
2023-03-11T06:04:43.511Z,-0.34
2023-03-11T06:07:51.255Z,-0.38
2023-03-11T06:11:05.289Z,-0.42
2023-03-11T06:14:16.803Z,-0.52
2023-03-11T06:17:25.912Z,-0.70
2023-03-11T06:20:33.151Z,-0.87
2023-03-11T06:23:39.155Z,-0.94
2023-03-11T06:26:48.897Z,-1.02
2023-03-11T06:29:57.239Z,-1.04
2023-03-11T06:33:06.379Z,-1.24
2023-03-11T06:36:15.431Z,-1.25
2023-03-11T06:39:22.704Z,-1.29
2023-03-11T06:42:33.225Z,-1.35
2023-03-11T06:45:40.392Z,-1.30
2023-03-11T06:48:52.161Z,-1.35
2023-03-11T06:52:00.631Z,-1.33
2023-03-11T06:55:13.757Z,-1.25
2023-03-11T06:58:36.417Z,-1.22
2023-03-11T07:01:53.495Z,-1.18
2023-03-11T07:05:00.443Z,-1.23
2023-03-11T07:08:27.096Z,-1.25
2023-03-11T07:11:36.273Z,-1.11
2023-03-11T07:14:59.024Z,-1.00
2023-03-11T07:18:07.133Z,-0.97
2023-03-11T07:21:17.751Z,-1.09
2023-03-11T07:24:24.800Z,-1.19
2023-03-11T07:27:34.168Z,-1.19
2023-03-11T07:30:46.801Z,-1.18
2023-03-11T07:33:53.236Z,-1.23
2023-03-11T07:37:00.063Z,-1.17
2023-03-11T07:40:06.128Z,-1.10
2023-03-11T07:43:14.078Z,-1.14
2023-03-11T07:46:36.120Z,-1.26
2023-03-11T07:49:42.960Z,-1.18
2023-03-11T07:52:49.154Z,-1.14
2023-03-11T07:56:00.087Z,-1.28
2023-03-11T07:59:09.833Z,-1.23
2023-03-11T08:02:19.560Z,-1.18
2023-03-11T08:05:25.568Z,-1.25
2023-03-11T08:08:32.463Z,-1.20
2023-03-11T08:11:39.459Z,-1.15
2023-03-11T08:14:46.807Z,-1.17
2023-03-11T08:17:55.378Z,-1.26
2023-03-11T08:21:06.983Z,-1.23
2023-03-11T08:24:16.780Z,-1.27
2023-03-11T08:27:23.581Z,-1.31
2023-03-11T08:30:29.516Z,-1.29
2023-03-11T08:33:38.825Z,-1.31
2023-03-11T08:36:45.298Z,-1.26
2023-03-11T08:39:52.149Z,-1.43
2023-03-11T08:42:59.458Z,-1.46
2023-03-11T08:46:09.677Z,-1.36
2023-03-11T08:49:18.431Z,-1.46
2023-03-11T08:52:25.198Z,-1.47
2023-03-11T08:55:31.174Z,-1.57
2023-03-11T08:58:38.337Z,-1.61
2023-03-11T09:01:44.868Z,-1.66
2023-03-11T09:04:54.196Z,-1.64
2023-03-11T09:08:05.268Z,-1.73
2023-03-11T09:11:13.776Z,-1.86
2023-03-11T09:14:20.214Z,-1.82
2023-03-11T09:17:29.344Z,-1.80
2023-03-11T09:20:40.297Z,-1.75
2023-03-11T09:23:47.889Z,-1.75
2023-03-11T09:26:53.817Z,-1.89
2023-03-11T09:30:06.815Z,-2.03
2023-03-11T09:33:21.329Z,-2.07
2023-03-11T09:36:30.696Z,-1.86
2023-03-11T09:39:36.943Z,-1.81
2023-03-11T09:42:58.851Z,-2.05
2023-03-11T09:46:32.675Z,-2.01
2023-03-11T09:50:08.904Z,-2.14
2023-03-11T09:53:36.424Z,-2.08
2023-03-11T09:56:53.793Z,-2.00
2023-03-11T10:00:01.068Z,-2.08
2023-03-11T10:03:21.350Z,-2.02
2023-03-11T10:06:31.873Z,-2.01
2023-03-11T10:09:51.123Z,-2.11
2023-03-11T10:13:10.824Z,-1.87
2023-03-11T10:16:31.315Z,-1.90
2023-03-11T10:19:53.002Z,-2.07
2023-03-11T10:23:20.482Z,-2.02
2023-03-11T10:26:39.143Z,-2.04
2023-03-11T10:30:01.100Z,-2.06
2023-03-11T10:33:42.924Z,-2.09
2023-03-11T10:37:04.204Z,-2.09
2023-03-11T10:40:26.497Z,-2.11
2023-03-11T10:43:49.537Z,-2.16
2023-03-11T10:46:58.255Z,-2.19
2023-03-11T10:50:12.626Z,-2.06
2023-03-11T10:53:22.325Z,-2.11
2023-03-11T10:56:34.635Z,-2.04
2023-03-11T10:59:55.248Z,-2.26
2023-03-11T11:03:04.608Z,-2.12
2023-03-11T11:06:31.088Z,-2.11
2023-03-11T11:09:37.941Z,-2.11
2023-03-11T11:13:08.838Z,-2.11
2023-03-11T11:16:39.470Z,-2.06
2023-03-11T11:20:04.801Z,-2.21
2023-03-11T11:23:57.832Z,-2.21
2023-03-11T11:27:39.595Z,-2.00
2023-03-11T11:30:59.882Z,-2.04
2023-03-11T11:34:37.855Z,-2.10
2023-03-11T11:37:49.982Z,-2.19
2023-03-11T11:41:00.689Z,-2.14
2023-03-11T11:44:13.546Z,-2.03
2023-03-11T11:47:28.427Z,-2.16
2023-03-11T11:50:46.435Z,-2.14
2023-03-11T11:54:03.081Z,-2.21
2023-03-11T11:57:17.687Z,-2.22
2023-03-11T12:00:30.081Z,-2.28
2023-03-11T12:04:07.888Z,-2.25
2023-03-11T12:07:36.710Z,-2.27
2023-03-11T12:10:55.507Z,-2.38
2023-03-11T12:14:15.547Z,-2.28
2023-03-11T12:17:27.687Z,-2.13
2023-03-11T12:20:43.984Z,-2.11
2023-03-11T12:24:21.686Z,-2.21
2023-03-11T12:27:37.173Z,-2.45
2023-03-11T12:30:52.792Z,-2.52
2023-03-11T12:34:05.717Z,-2.52
2023-03-11T12:37:21.645Z,-2.62
2023-03-11T12:40:58.580Z,-2.57
2023-03-11T12:44:35.752Z,-2.47
2023-03-11T12:47:41.869Z,-2.54
2023-03-11T12:50:49.585Z,-2.50
2023-03-11T12:53:57.155Z,-2.43
2023-03-11T12:57:33.505Z,-2.42
2023-03-11T13:01:14.162Z,-2.40
2023-03-11T13:04:58.994Z,-2.51
2023-03-11T13:08:17.872Z,-2.44
2023-03-11T13:11:46.008Z,-2.38
2023-03-11T13:15:31.855Z,-2.31
2023-03-11T13:18:39.155Z,-2.31
2023-03-11T13:21:45.225Z,-2.32
2023-03-11T13:24:55.702Z,-2.21
2023-03-11T13:28:36.690Z,-2.24
2023-03-11T13:32:12.663Z,-2.35
2023-03-11T13:35:56.737Z,-2.39
2023-03-11T13:39:42.952Z,-2.34
2023-03-11T13:43:11.740Z,-2.35
2023-03-11T13:46:40.335Z,-2.28
2023-03-11T13:50:23.619Z,-2.35
2023-03-11T13:53:56.438Z,-2.40
2023-03-11T13:57:07.914Z,-2.38
2023-03-11T14:00:24.330Z,-2.54
2023-03-11T14:03:44.051Z,-2.41
2023-03-11T14:06:59.903Z,-2.53
2023-03-11T14:10:32.327Z,-2.40
2023-03-11T14:13:47.527Z,-2.34
2023-03-11T14:16:54.776Z,-2.36
2023-03-11T14:20:15.401Z,-2.34
2023-03-11T14:23:47.112Z,-2.38
2023-03-11T14:27:16.176Z,-2.31
2023-03-11T14:30:38.485Z,-2.38
2023-03-11T14:34:05.095Z,-2.28
2023-03-11T14:37:33.526Z,-2.20
2023-03-11T14:40:42.294Z,-2.15
2023-03-11T14:43:58.045Z,-2.03
2023-03-11T14:47:15.176Z,-1.98
2023-03-11T14:50:35.290Z,-1.97
2023-03-11T14:53:51.798Z,-1.98
2023-03-11T14:57:09.606Z,-2.01
2023-03-11T15:00:25.192Z,-1.99
2023-03-11T15:03:36.999Z,-2.10
2023-03-11T15:06:48.320Z,-2.15
2023-03-11T15:09:55.510Z,-2.18
2023-03-11T15:13:17.977Z,-2.11
2023-03-11T15:16:36.477Z,-2.16
2023-03-11T15:19:48.621Z,-2.22
2023-03-11T15:23:01.540Z,-2.24
2023-03-11T15:26:08.891Z,-2.35
2023-03-11T15:29:21.564Z,-2.39
2023-03-11T15:32:42.215Z,-2.23
2023-03-11T15:35:54.113Z,-2.15
2023-03-11T15:39:20.542Z,-2.20
2023-03-11T15:42:29.510Z,-2.48
2023-03-11T15:45:39.807Z,-2.44
2023-03-11T15:48:47.111Z,-2.62
2023-03-11T15:51:53.202Z,-2.63
2023-03-11T15:55:00.043Z,-2.58
2023-03-11T15:58:17.214Z,-2.61
2023-03-11T16:01:34.877Z,-2.75
2023-03-11T16:04:40.973Z,-2.64
2023-03-11T16:07:48.169Z,-2.72
2023-03-11T16:10:54.680Z,-2.77
2023-03-11T16:14:05.364Z,-2.69
2023-03-11T16:17:14.921Z,-2.63
2023-03-11T16:20:28.957Z,-2.80
2023-03-11T16:23:51.002Z,-2.71
2023-03-11T16:26:58.574Z,-2.85
2023-03-11T16:30:04.557Z,-2.76
2023-03-11T16:33:14.355Z,-2.77
2023-03-11T16:36:20.481Z,-2.77
2023-03-11T16:39:27.237Z,-2.81
2023-03-11T16:42:33.149Z,-2.58
2023-03-11T16:45:54.095Z,-2.51
2023-03-11T16:49:02.777Z,-2.42
2023-03-11T16:52:10.377Z,-2.43
2023-03-11T16:55:16.629Z,-2.41
2023-03-11T16:58:26.497Z,-2.54
2023-03-11T17:01:38.960Z,-2.53
2023-03-11T17:04:50.895Z,-2.49
2023-03-11T17:08:05.967Z,-2.72
2023-03-11T17:11:20.357Z,-2.69
2023-03-11T17:14:26.926Z,-2.53
2023-03-11T17:17:33.753Z,-2.80
2023-03-11T17:20:46.404Z,-2.81
2023-03-11T17:23:54.747Z,-2.81
2023-03-11T17:27:00.662Z,-2.68
2023-03-11T17:30:12.819Z,-2.56
2023-03-11T17:33:21.088Z,-2.63
2023-03-11T17:36:35.705Z,-2.81
2023-03-11T17:39:41.761Z,-2.94
2023-03-11T17:42:50.397Z,-2.78
2023-03-11T17:45:58.847Z,-2.86
2023-03-11T17:49:08.822Z,-3.06
2023-03-11T17:52:17.722Z,-2.94
2023-03-11T17:55:24.654Z,-3.03
2023-03-11T17:58:30.603Z,-3.01
2023-03-11T18:01:37.547Z,-2.79
2023-03-11T18:04:46.220Z,-2.75
2023-03-11T18:07:58.806Z,-2.89
2023-03-11T18:11:16.391Z,-2.85
2023-03-11T18:14:24.493Z,-2.77
2023-03-11T18:17:32.268Z,-2.72
2023-03-11T18:20:43.556Z,-2.70
2023-03-11T18:23:55.524Z,-2.74
2023-03-11T18:27:08.901Z,-2.70
2023-03-11T18:30:20.941Z,-2.65
2023-03-11T18:33:45.783Z,-2.59
2023-03-11T18:36:52.123Z,-2.66
2023-03-11T18:40:01.685Z,-2.79
2023-03-11T18:43:09.044Z,-2.67
2023-03-11T18:46:19.402Z,-2.63
2023-03-11T18:49:25.468Z,-2.74
2023-03-11T18:52:32.280Z,-2.66
2023-03-11T18:55:40.966Z,-2.68
2023-03-11T18:58:48.789Z,-2.70
2023-03-11T19:01:54.917Z,-2.68
2023-03-11T19:05:14.955Z,-2.56
2023-03-11T19:08:21.018Z,-2.55
2023-03-11T19:11:30.561Z,-2.65
2023-03-11T19:14:36.556Z,-2.50
2023-03-11T19:17:43.393Z,-2.61
2023-03-11T19:21:00.011Z,-2.52
2023-03-11T19:24:10.910Z,-2.63
2023-03-11T19:27:19.622Z,-2.63
2023-03-11T19:30:26.984Z,-2.70
2023-03-11T19:33:50.263Z,-2.69
2023-03-11T19:36:58.898Z,-2.72
2023-03-11T19:40:05.076Z,-2.65
2023-03-11T19:43:18.867Z,-2.65
2023-03-11T19:46:26.425Z,-2.63
2023-03-11T19:49:33.334Z,-2.70
2023-03-11T19:52:39.442Z,-2.59
2023-03-11T19:55:47.444Z,-2.67
2023-03-11T19:58:56.234Z,-2.66
2023-03-11T20:02:03.831Z,-2.67
2023-03-11T20:05:12.789Z,-2.58
2023-03-11T20:08:23.658Z,-2.51
2023-03-11T20:11:30.546Z,-2.47
2023-03-11T20:14:41.203Z,-2.42
2023-03-11T20:17:47.872Z,-2.48
2023-03-11T20:20:59.151Z,-2.49
2023-03-11T20:24:10.197Z,-2.38
2023-03-11T20:27:17.533Z,-2.31
2023-03-11T20:30:29.869Z,-2.38
2023-03-11T20:33:37.639Z,-2.36
2023-03-11T20:37:02.997Z,-2.34
2023-03-11T20:40:16.032Z,-2.34
2023-03-11T20:43:22.442Z,-2.33
2023-03-11T20:46:35.373Z,-2.43
2023-03-11T20:49:41.558Z,-2.42
2023-03-11T20:52:48.654Z,-2.41
2023-03-11T20:55:56.653Z,-2.45
2023-03-11T20:59:04.760Z,-2.50
2023-03-11T21:02:16.831Z,-2.51
2023-03-11T21:05:24.040Z,-2.49
2023-03-11T21:08:30.181Z,-2.51
2023-03-11T21:11:48.808Z,-2.51
2023-03-11T21:14:56.936Z,-2.55
2023-03-11T21:18:13.011Z,-2.55
2023-03-11T21:21:23.113Z,-2.55
2023-03-11T21:24:30.075Z,-2.59
2023-03-11T21:27:36.180Z,-2.66
2023-03-11T21:30:44.486Z,-2.77
2023-03-11T21:33:57.554Z,-2.87
2023-03-11T21:37:04.620Z,-2.81
2023-03-11T21:40:15.485Z,-3.02
2023-03-11T21:43:24.295Z,-2.98
2023-03-11T21:46:34.509Z,-2.94
2023-03-11T21:49:44.044Z,-2.95
2023-03-11T21:52:50.170Z,-2.90
2023-03-11T21:55:57.463Z,-2.92
2023-03-11T21:59:05.024Z,-2.96
2023-03-11T22:02:19.496Z,-2.96
2023-03-11T22:05:28.781Z,-2.90
2023-03-11T22:08:35.939Z,-2.90
2023-03-11T22:11:41.904Z,-2.98
2023-03-11T22:14:48.711Z,-2.92
2023-03-11T22:17:54.876Z,-2.96
2023-03-11T22:21:05.472Z,-2.91
2023-03-11T22:24:14.812Z,-2.87
2023-03-11T22:27:21.684Z,-2.77
2023-03-11T22:30:28.750Z,-2.86
2023-03-11T22:33:35.526Z,-3.05
2023-03-11T22:36:44.371Z,-2.98
2023-03-11T22:39:51.169Z,-2.98
2023-03-11T22:42:57.417Z,-2.91
2023-03-11T22:46:04.978Z,-2.97
2023-03-11T22:49:11.175Z,-2.83
2023-03-11T22:52:21.249Z,-2.77
2023-03-11T22:55:27.266Z,-2.66
2023-03-11T22:58:34.052Z,-2.66
2023-03-11T23:01:40.113Z,-2.69
2023-03-11T23:04:48.480Z,-2.76
2023-03-11T23:07:58.081Z,-2.82
2023-03-11T23:11:06.869Z,-2.77
2023-03-11T23:14:12.760Z,-2.64
2023-03-11T23:17:19.539Z,-2.58
2023-03-11T23:20:25.715Z,-2.69
2023-03-11T23:23:35.037Z,-2.85
2023-03-11T23:26:41.472Z,-2.80
2023-03-11T23:29:48.197Z,-2.68
2023-03-11T23:32:54.182Z,-2.71
2023-03-11T23:36:04.057Z,-2.66
2023-03-11T23:39:12.627Z,-2.97
2023-03-11T23:42:25.764Z,-2.85
2023-03-11T23:45:31.936Z,-2.93
2023-03-11T23:48:39.335Z,-2.95
2023-03-11T23:51:45.294Z,-3.26
2023-03-11T23:54:54.893Z,-3.16
2023-03-11T23:58:00.841Z,-2.97
